Time;durP1;ratioP1;P1;durP2;ratioP2;P2;SDS_P1;SDS_P2;PMS_P1;PMS_P2;Temp;Humidity;BMP_temperature;BMP_pressure;BME280_temperature;BME280_humidity;BME280_pressure;Samples;Min_cycle;Max_cycle;Signal;HPM_P1;HPM_P2
2021/07/09 00:01:51;;;;;;;5.77;4.07;;;26.70;76.50;;;;;;5144541;27;20429;-27
2021/07/09 00:04:23;;;;;;;5.40;3.57;;;26.50;74.00;;;;;;5144554;27;20446;-26
2021/07/09 00:06:55;;;;;;;4.30;4.00;;;26.40;77.80;;;;;;5142895;27;20512;-28
2021/07/09 00:09:28;;;;;;;3.60;3.20;;;26.40;78.20;;;;;;5144283;27;20483;-27
2021/07/09 00:11:59;;;;;;;4.40;4.00;;;26.40;78.50;;;;;;5143183;27;20456;-26
2021/07/09 00:14:33;;;;;;;3.97;3.63;;;26.30;77.20;;;;;;5144362;27;20485;-26
2021/07/09 00:17:07;;;;;;;3.70;3.40;;;26.30;78.40;;;;;;5144122;27;20808;-25
2021/07/09 00:19:41;;;;;;;4.00;3.60;;;26.30;78.60;;;;;;5144285;27;20445;-26
2021/07/09 00:22:14;;;;;;;5.10;3.83;;;26.50;78.70;;;;;;5143721;27;20448;-23
2021/07/09 00:24:49;;;;;;;4.07;3.67;;;26.40;78.50;;;;;;5144504;27;20479;-24
2021/07/09 00:27:22;;;;;;;4.33;4.03;;;26.30;78.50;;;;;;5143250;28;20448;-24
2021/07/09 00:29:53;;;;;;;5.07;4.67;;;26.30;79.30;;;;;;5144188;27;20518;-25
2021/07/09 00:32:24;;;;;;;6.13;5.73;;;26.30;79.60;;;;;;5144077;28;20498;-26
2021/07/09 00:34:55;;;;;;;5.57;4.23;;;26.20;80.70;;;;;;5144315;27;20881;-26
2021/07/09 00:37:26;;;;;;;4.70;4.30;;;26.30;79.50;;;;;;5143466;27;20493;-26
2021/07/09 00:40:00;;;;;;;5.40;3.13;;;26.20;78.40;;;;;;5144041;27;20737;-28
2021/07/09 00:42:32;;;;;;;3.37;3.17;;;26.20;78.20;;;;;;5143081;27;20480;-26
2021/07/09 00:45:07;;;;;;;3.10;2.90;;;25.90;79.80;;;;;;5143758;28;20853;-28
2021/07/09 00:47:40;;;;;;;3.23;3.03;;;25.90;80.90;;;;;;5143858;27;20760;-26
2021/07/09 00:50:12;;;;;;;3.17;2.90;;;25.90;82.10;;;;;;5143995;28;20445;-25
2021/07/09 00:52:43;;;;;;;3.47;1.93;;;26.00;78.50;;;;;;5146537;27;20500;-28
2021/07/09 00:55:17;;;;;;;2.20;2.00;;;25.90;77.60;;;;;;5148013;27;20445;-29
2021/07/09 00:57:50;;;;;;;2.40;2.30;;;25.80;79.60;;;;;;5147482;27;20444;-28
2021/07/09 01:00:24;;;;;;;2.27;2.00;;;25.60;79.30;;;;;;5147800;27;20448;-25
2021/07/09 01:02:55;;;;;;;2.63;2.50;;;25.50;81.00;;;;;;5148078;27;20472;-26
2021/07/09 01:05:28;;;;;;;1.90;1.80;;;25.60;80.20;;;;;;5147860;27;20881;-26
2021/07/09 01:08:03;;;;;;;2.10;2.00;;;25.50;79.60;;;;;;5147817;27;20524;-23
2021/07/09 01:10:36;;;;;;;2.23;2.13;;;25.40;80.90;;;;;;5147233;27;20415;-25
2021/07/09 01:13:07;;;;;;;3.40;1.80;;;25.50;79.80;;;;;;5147666;27;20547;-23
2021/07/09 01:15:38;;;;;;;2.40;2.10;;;25.40;81.10;;;;;;5147580;27;20977;-25
2021/07/09 01:18:09;;;;;;;2.30;2.10;;;25.30;80.00;;;;;;5147251;27;20436;-24
2021/07/09 01:20:40;;;;;;;1.90;1.80;;;25.30;80.40;;;;;;5147347;27;20428;-26
2021/07/09 01:23:12;;;;;;;2.07;1.97;;;25.30;81.50;;;;;;5147577;27;20478;-25
2021/07/09 01:25:47;;;;;;;1.97;1.87;;;25.30;82.10;;;;;;5146496;27;20480;-23
2021/07/09 01:28:23;;;;;;;2.00;1.90;;;25.20;82.20;;;;;;5147339;27;20472;-24
2021/07/09 01:30:59;;;;;;;2.07;1.90;;;25.30;82.00;;;;;;5147064;27;20451;-26
2021/07/09 01:33:32;;;;;;;5.20;2.03;;;25.20;82.10;;;;;;5147545;27;20429;-24
2021/07/09 01:36:05;;;;;;;2.67;2.07;;;25.20;80.70;;;;;;5147123;27;20432;-27
2021/07/09 01:38:39;;;;;;;2.20;1.67;;;25.10;80.60;;;;;;5147248;27;20589;-25
2021/07/09 01:41:12;;;;;;;1.80;1.70;;;25.10;81.50;;;;;;5146594;27;20441;-25
2021/07/09 01:43:46;;;;;;;3.17;2.10;;;25.00;82.20;;;;;;5147221;27;20445;-27
2021/07/09 01:46:19;;;;;;;6.80;2.63;;;25.00;82.40;;;;;;5146971;27;20490;-28
2021/07/09 01:48:50;;;;;;;6.80;2.70;;;25.00;82.10;;;;;;5146797;27;20437;-25
2021/07/09 01:51:21;;;;;;;4.07;2.33;;;25.00;82.80;;;;;;5146836;27;20785;-24
2021/07/09 01:54:00;;;;;;;2.03;1.93;;;24.80;82.20;;;;;;5146965;27;20487;-28
2021/07/09 01:56:32;;;;;;;1.80;1.70;;;24.70;84.30;;;;;;5146144;27;20571;-25
2021/07/09 01:59:15;;;;;;;1.87;1.77;;;24.70;84.90;;;;;;5146777;27;20474;-28
2021/07/09 02:01:47;;;;;;;2.20;2.00;;;24.70;84.30;;;;;;5147088;27;20440;-27
2021/07/09 02:04:18;;;;;;;1.90;1.80;;;24.70;82.30;;;;;;5145809;27;20807;-25
2021/07/09 02:06:49;;;;;;;1.93;1.60;;;24.60;83.40;;;;;;5142278;27;20488;-26
2021/07/09 02:09:20;;;;;;;3.53;1.70;;;24.60;82.30;;;;;;5126572;28;20510;-24
2021/07/09 02:11:53;;;;;;;4.20;2.27;;;24.60;82.80;;;;;;5125309;28;20448;-25
2021/07/09 02:14:24;;;;;;;1.90;1.80;;;24.60;83.40;;;;;;5126168;28;20456;-24
2021/07/09 02:16:55;;;;;;;1.80;1.53;;;24.50;84.30;;;;;;5125812;28;20478;-24
2021/07/09 02:19:26;;;;;;;1.83;1.63;;;24.40;85.60;;;;;;5145945;27;20441;-23
2021/07/09 02:22:01;;;;;;;2.07;1.97;;;24.40;85.80;;;;;;5146266;27;20429;-26
2021/07/09 02:24:34;;;;;;;1.97;1.70;;;24.40;85.90;;;;;;5147095;27;20441;-27
2021/07/09 02:27:08;;;;;;;19.33;5.83;;;24.30;85.50;;;;;;5145496;27;20492;-23
2021/07/09 02:29:42;;;;;;;11.30;2.70;;;24.30;85.40;;;;;;5146616;27;20472;-26
2021/07/09 02:32:15;;;;;;;1.80;1.70;;;24.30;86.20;;;;;;5146170;27;20493;-26
2021/07/09 02:34:46;;;;;;;1.80;1.70;;;24.20;86.00;;;;;;5146595;27;20515;-26
2021/07/09 02:37:17;;;;;;;1.67;1.57;;;24.10;86.70;;;;;;5145802;27;20436;-30
2021/07/09 02:39:50;;;;;;;1.73;1.63;;;24.10;87.00;;;;;;5146510;27;20491;-25
2021/07/09 02:42:25;;;;;;;1.80;1.70;;;24.00;88.50;;;;;;5145358;27;20455;-27
2021/07/09 02:44:58;;;;;;;2.00;1.90;;;23.90;88.80;;;;;;5145825;27;20509;-26
2021/07/09 02:47:30;;;;;;;2.03;1.93;;;23.90;89.40;;;;;;5145931;27;20481;-28
2021/07/09 02:50:02;;;;;;;2.13;1.90;;;23.80;89.30;;;;;;5145819;27;20469;-26
2021/07/09 02:52:33;;;;;;;2.90;2.23;;;23.80;88.40;;;;;;5145672;27;20472;-26
2021/07/09 02:55:05;;;;;;;2.00;1.90;;;23.80;88.80;;;;;;5146452;27;20437;-29
2021/07/09 02:57:41;;;;;;;1.97;1.80;;;23.70;89.20;;;;;;5128424;27;20551;-24
2021/07/09 03:00:15;;;;;;;2.20;2.00;;;23.70;89.30;;;;;;5125296;28;20459;-26
2021/07/09 03:02:49;;;;;;;1.83;1.73;;;23.60;90.20;;;;;;5125242;28;20424;-24
2021/07/09 03:05:20;;;;;;;1.73;1.63;;;23.50;90.20;;;;;;5125488;28;20481;-24
2021/07/09 03:07:54;;;;;;;1.80;1.70;;;23.40;90.70;;;;;;5125492;28;20469;-24
2021/07/09 03:10:25;;;;;;;2.27;2.10;;;23.40;91.00;;;;;;5125053;28;20464;-24
2021/07/09 03:12:57;;;;;;;1.80;1.60;;;23.30;91.50;;;;;;5125120;28;20452;-27
2021/07/09 03:15:28;;;;;;;1.87;1.70;;;23.20;91.40;;;;;;5124827;28;20477;-27
2021/07/09 03:17:59;;;;;;;1.90;1.80;;;23.10;91.50;;;;;;5132270;27;20433;-23
2021/07/09 03:20:30;;;;;;;2.17;1.80;;;23.10;91.80;;;;;;5144498;27;20501;-24
2021/07/09 03:23:01;;;;;;;1.70;1.60;;;23.10;91.70;;;;;;5145629;27;20459;-23
2021/07/09 03:25:32;;;;;;;1.67;1.57;;;23.00;91.90;;;;;;5144376;27;20425;-23
2021/07/09 03:28:05;;;;;;;2.20;2.07;;;22.90;92.10;;;;;;5145138;27;20559;-24
2021/07/09 03:30:36;;;;;;;1.90;1.80;;;22.90;92.60;;;;;;5144567;27;20445;-23
2021/07/09 03:33:07;;;;;;;1.70;1.60;;;22.80;93.10;;;;;;5145332;27;20456;-24
2021/07/09 03:35:38;;;;;;;2.40;1.90;;;22.70;93.30;;;;;;5144397;27;20430;-24
2021/07/09 03:38:09;;;;;;;2.10;1.90;;;22.70;93.50;;;;;;5145081;27;20403;-25
2021/07/09 03:40:40;;;;;;;1.60;1.50;;;22.60;94.00;;;;;;5144163;27;20472;-24
2021/07/09 03:43:13;;;;;;;2.50;2.10;;;22.40;94.50;;;;;;5144989;27;20419;-22
2021/07/09 03:45:44;;;;;;;2.13;1.90;;;22.40;94.80;;;;;;5123699;28;20472;-25
2021/07/09 03:48:15;;;;;;;2.17;1.97;;;22.30;95.50;;;;;;5124286;28;20456;-22
2021/07/09 03:50:49;;;;;;;2.17;1.97;;;22.20;95.80;;;;;;5123529;28;20444;-27
2021/07/09 03:53:20;;;;;;;2.40;1.90;;;22.10;96.40;;;;;;5124326;28;20438;-25
2021/07/09 03:55:51;;;;;;;2.30;2.10;;;22.10;96.40;;;;;;5123242;28;20479;-28
2021/07/09 03:58:23;;;;;;;2.20;2.10;;;22.00;96.70;;;;;;5123979;28;20469;-28
2021/07/09 04:00:54;;;;;;;2.03;1.93;;;21.90;96.90;;;;;;5123442;28;20448;-25
2021/07/09 04:03:28;;;;;;;2.47;2.27;;;21.80;97.40;;;;;;5123729;28;20811;-23
2021/07/09 04:05:59;;;;;;;2.20;2.00;;;21.80;97.50;;;;;;5123484;28;20425;-24
2021/07/09 04:08:34;;;;;;;2.00;1.90;;;21.70;97.90;;;;;;5124080;28;20498;-24
2021/07/09 04:11:05;;;;;;;2.17;2.07;;;21.50;98.30;;;;;;5123360;28;20454;-25
2021/07/09 04:13:38;;;;;;;2.10;2.00;;;21.50;98.60;;;;;;5124015;28;20432;-24
2021/07/09 04:16:13;;;;;;;3.33;1.60;;;21.40;98.70;;;;;;5123664;27;20835;-23
2021/07/09 04:18:44;;;;;;;2.93;1.90;;;21.30;98.70;;;;;;5137765;27;20504;-25
2021/07/09 04:21:15;;;;;;;1.80;1.70;;;21.30;98.80;;;;;;5143498;28;20431;-22
2021/07/09 04:23:49;;;;;;;2.10;1.90;;;21.20;99.20;;;;;;5144463;28;20435;-23
2021/07/09 04:26:20;;;;;;;2.00;1.80;;;21.10;99.50;;;;;;5144565;27;20422;-24
2021/07/09 04:28:52;;;;;;;1.70;1.60;;;21.00;99.80;;;;;;5148793;27;20578;-24
2021/07/09 04:31:29;;;;;;;1.77;1.67;;;21.00;99.90;;;;;;5148014;27;20466;-24
2021/07/09 04:34:00;;;;;;;1.87;1.47;;;20.90;99.90;;;;;;5148661;27;20456;-26
2021/07/09 04:36:31;;;;;;;1.93;1.73;;;20.80;99.90;;;;;;5148093;27;20441;-23
2021/07/09 04:39:02;;;;;;;1.77;1.67;;;20.60;99.90;;;;;;5148535;27;20427;-27
2021/07/09 04:41:33;;;;;;;1.77;1.67;;;20.60;99.90;;;;;;5147675;27;20437;-23
2021/07/09 04:44:08;;;;;;;1.60;1.30;;;20.60;99.90;;;;;;5148138;27;20444;-26
2021/07/09 04:46:42;;;;;;;1.53;1.40;;;20.50;99.90;;;;;;5148464;27;20422;-25
2021/07/09 04:49:15;;;;;;;2.37;1.60;;;20.50;99.90;;;;;;5148021;27;20549;-24
2021/07/09 04:51:46;;;;;;;1.50;1.40;;;20.40;99.90;;;;;;5147357;27;20472;-24
2021/07/09 04:54:17;;;;;;;2.10;2.00;;;20.30;99.90;;;;;;5148364;27;20883;-24
2021/07/09 04:56:48;;;;;;;1.73;1.63;;;20.20;99.90;;;;;;5147373;27;20471;-28
2021/07/09 04:59:20;;;;;;;2.03;1.83;;;20.10;99.90;;;;;;5148091;27;20434;-27
2021/07/09 05:01:52;;;;;;;1.90;1.80;;;20.00;99.90;;;;;;5147736;27;20419;-24
2021/07/09 05:04:25;;;;;;;2.00;1.90;;;19.90;99.90;;;;;;5147524;27;20480;-23
2021/07/09 05:06:58;;;;;;;1.90;1.80;;;19.80;99.90;;;;;;5147346;27;20440;-22
2021/07/09 05:09:29;;;;;;;2.23;1.77;;;19.80;99.90;;;;;;5148141;27;20458;-25
2021/07/09 05:12:00;;;;;;;1.73;1.60;;;19.80;99.90;;;;;;5147433;27;20444;-23
2021/07/09 05:14:35;;;;;;;2.07;1.80;;;19.70;99.90;;;;;;5147922;27;20434;-26
2021/07/09 05:17:07;;;;;;;2.43;1.73;;;19.60;99.90;;;;;;5147398;27;20456;-23
2021/07/09 05:19:38;;;;;;;1.80;1.43;;;19.50;99.90;;;;;;5127286;28;20496;-23
2021/07/09 05:22:10;;;;;;;1.90;1.80;;;19.50;99.90;;;;;;5126585;28;20424;-23
2021/07/09 05:24:41;;;;;;;1.57;1.47;;;19.40;99.90;;;;;;5127340;28;20450;-23
2021/07/09 05:27:12;;;;;;;2.00;1.57;;;19.30;99.90;;;;;;5126189;28;20524;-25
2021/07/09 05:29:45;;;;;;;1.73;1.63;;;19.30;99.90;;;;;;5127092;28;20514;-26
2021/07/09 05:32:17;;;;;;;2.40;1.90;;;19.20;99.90;;;;;;5126726;28;20487;-26
2021/07/09 05:34:48;;;;;;;1.77;1.67;;;19.10;99.90;;;;;;5126963;28;20442;-24
2021/07/09 05:37:22;;;;;;;1.70;1.60;;;19.10;99.90;;;;;;5126180;28;20502;-23
2021/07/09 05:39:56;;;;;;;1.80;1.70;;;19.00;99.90;;;;;;5126981;28;20827;-22
2021/07/09 05:42:27;;;;;;;1.63;1.53;;;18.90;99.90;;;;;;5125968;27;20448;-25
2021/07/09 05:45:01;;;;;;;2.17;1.87;;;18.90;99.90;;;;;;5126469;28;21016;-25
2021/07/09 05:47:32;;;;;;;1.60;1.50;;;18.80;99.90;;;;;;5126125;28;20441;-24
2021/07/09 05:50:02;;;;;;;2.00;1.80;;;18.70;99.90;;;;;;5126643;27;20455;-25
2021/07/09 05:52:33;;;;;;;1.40;1.30;;;18.70;99.90;;;;;;5125819;28;20493;-23
2021/07/09 05:55:05;;;;;;;1.80;1.70;;;18.60;99.90;;;;;;5126415;28;20426;-25
2021/07/09 05:57:39;;;;;;;1.53;1.43;;;18.50;99.90;;;;;;5125750;28;20917;-23
2021/07/09 06:00:13;;;;;;;2.03;1.57;;;18.40;99.90;;;;;;5126534;28;20838;-26
2021/07/09 06:02:47;;;;;;;1.80;1.70;;;18.40;99.90;;;;;;5126019;28;20560;-25
2021/07/09 06:05:18;;;;;;;3.33;1.63;;;18.30;99.90;;;;;;5126528;28;20456;-25
2021/07/09 06:07:49;;;;;;;1.70;1.47;;;18.30;99.90;;;;;;5125639;27;20556;-24
2021/07/09 06:10:21;;;;;;;2.30;1.70;;;18.20;99.90;;;;;;5126163;28;20462;-24
2021/07/09 06:12:52;;;;;;;1.50;1.40;;;18.20;99.90;;;;;;5124690;28;20423;-26
2021/07/09 06:15:26;;;;;;;1.37;1.27;;;18.20;99.90;;;;;;5125539;28;20764;-23
2021/07/09 06:18:17;;;;;;;1.50;1.40;;;18.10;99.90;;;;;;5135935;27;20516;-23
2021/07/09 06:20:53;;;;;;;1.60;1.30;;;18.00;99.90;;;;;;5145966;27;20919;-24
2021/07/09 06:23:24;;;;;;;2.30;2.20;;;18.00;99.90;;;;;;5146197;27;20475;-28
2021/07/09 06:25:55;;;;;;;1.43;1.33;;;17.90;99.90;;;;;;5145932;27;20481;-23
2021/07/09 06:28:26;;;;;;;1.40;1.30;;;17.90;99.90;;;;;;5146430;27;20484;-27
2021/07/09 06:31:01;;;;;;;1.50;1.40;;;17.80;99.90;;;;;;5146386;27;20451;-24
2021/07/09 06:33:34;;;;;;;1.20;1.10;;;17.80;99.90;;;;;;5145886;27;20455;-25
2021/07/09 06:36:06;;;;;;;1.40;1.30;;;17.70;99.90;;;;;;5145537;27;20449;-24
2021/07/09 06:38:37;;;;;;;1.80;1.30;;;17.70;99.90;;;;;;5146335;27;20437;-23
2021/07/09 06:41:08;;;;;;;2.00;1.80;;;17.60;99.90;;;;;;5145445;27;20464;-24
2021/07/09 06:43:39;;;;;;;1.27;1.07;;;17.50;99.90;;;;;;5145659;27;20464;-23
2021/07/09 06:46:12;;;;;;;1.67;1.47;;;17.50;99.90;;;;;;5145926;27;20497;-23
2021/07/09 06:48:43;;;;;;;1.37;1.30;;;17.50;99.90;;;;;;5145504;27;21027;-26
2021/07/09 06:51:14;;;;;;;1.60;1.50;;;17.50;99.90;;;;;;5145297;27;20445;-27
2021/07/09 06:53:47;;;;;;;1.50;1.40;;;17.40;99.90;;;;;;5145325;27;20485;-24
2021/07/09 06:56:21;;;;;;;1.17;1.07;;;17.40;99.90;;;;;;5138966;27;20445;-26
2021/07/09 06:58:55;;;;;;;1.20;1.10;;;17.30;99.90;;;;;;5124734;28;20453;-23
2021/07/09 07:01:36;;;;;;;1.80;1.70;;;17.30;99.90;;;;;;5125043;28;20437;-22
2021/07/09 07:04:09;;;;;;;1.50;1.40;;;17.30;99.90;;;;;;5125235;28;20448;-23
2021/07/09 07:06:40;;;;;;;1.70;1.50;;;17.20;99.90;;;;;;5124274;28;20442;-23
2021/07/09 07:09:11;;;;;;;1.70;1.60;;;17.20;99.90;;;;;;5124770;28;20907;-23
2021/07/09 07:11:44;;;;;;;1.70;1.60;;;17.10;99.90;;;;;;5123918;28;20453;-25
2021/07/09 07:14:15;;;;;;;2.60;1.70;;;17.00;99.90;;;;;;5124365;28;20470;-24
2021/07/09 07:16:48;;;;;;;1.47;1.37;;;17.00;99.90;;;;;;5124772;28;20538;-24
2021/07/09 07:19:18;;;;;;;1.53;1.43;;;17.00;99.90;;;;;;5143579;27;20437;-26
2021/07/09 07:21:50;;;;;;;1.90;1.80;;;17.00;99.90;;;;;;5144644;27;20445;-22
2021/07/09 07:24:21;;;;;;;1.60;1.47;;;17.00;99.90;;;;;;5145031;27;20517;-24
2021/07/09 07:26:52;;;;;;;1.73;1.30;;;16.90;99.90;;;;;;5144676;27;20862;-23
2021/07/09 07:29:23;;;;;;;1.53;1.43;;;16.80;99.90;;;;;;5145274;27;20477;-24
2021/07/09 07:31:57;;;;;;;1.63;1.53;;;16.70;99.90;;;;;;5145403;27;20532;-23
2021/07/09 07:34:28;;;;;;;2.50;1.40;;;16.80;99.90;;;;;;5145063;27;20440;-22
2021/07/09 07:36:59;;;;;;;1.50;1.40;;;16.80;99.90;;;;;;5144718;27;20468;-22
2021/07/09 07:39:30;;;;;;;1.53;1.43;;;16.70;99.90;;;;;;5145253;27;20451;-23
2021/07/09 07:42:06;;;;;;;1.90;1.30;;;16.70;99.90;;;;;;5143620;27;20437;-25
2021/07/09 07:44:38;;;;;;;1.97;1.40;;;16.60;99.90;;;;;;5144776;27;20513;-23
2021/07/09 07:47:10;;;;;;;2.70;1.60;;;16.60;99.90;;;;;;5144849;27;20478;-23
2021/07/09 07:49:41;;;;;;;1.50;1.40;;;16.50;99.90;;;;;;5145361;27;20495;-24
2021/07/09 07:52:12;;;;;;;1.50;1.40;;;16.50;99.90;;;;;;5144556;27;20445;-25
2021/07/09 07:54:45;;;;;;;1.60;1.40;;;16.50;99.90;;;;;;5145038;27;20592;-25
2021/07/09 07:57:16;;;;;;;1.50;1.40;;;16.50;99.90;;;;;;5144315;27;20781;-24
2021/07/09 07:59:47;;;;;;;1.63;1.53;;;16.50;99.90;;;;;;5145008;27;20432;-24
2021/07/09 08:02:20;;;;;;;1.40;1.30;;;16.40;99.90;;;;;;5144326;27;20433;-22
2021/07/09 08:04:51;;;;;;;2.13;1.60;;;16.30;99.90;;;;;;5144989;27;20924;-25
2021/07/09 08:07:24;;;;;;;1.57;1.47;;;16.40;99.90;;;;;;5144605;27;20493;-25
2021/07/09 08:09:58;;;;;;;1.43;1.33;;;16.40;99.90;;;;;;5144766;27;20488;-26
2021/07/09 08:12:32;;;;;;;1.80;1.70;;;16.30;99.90;;;;;;5144174;27;20449;-24
2021/07/09 08:15:03;;;;;;;1.47;1.37;;;16.30;99.90;;;;;;5144897;27;20482;-28
2021/07/09 08:17:36;;;;;;;1.50;1.40;;;16.30;99.90;;;;;;5144466;27;20481;-24
2021/07/09 08:20:11;;;;;;;2.13;1.60;;;16.30;99.90;;;;;;5145158;27;20444;-23
2021/07/09 08:22:42;;;;;;;1.83;1.47;;;16.20;99.90;;;;;;5144204;27;20473;-25
2021/07/09 08:25:16;;;;;;;1.87;1.77;;;16.10;99.90;;;;;;5144671;27;20440;-22
2021/07/09 08:27:47;;;;;;;2.07;1.40;;;16.10;99.90;;;;;;5144237;27;20475;-23
2021/07/09 08:30:18;;;;;;;1.67;1.57;;;16.10;99.90;;;;;;5144503;27;20989;-24
2021/07/09 08:32:51;;;;;;;1.50;1.40;;;16.10;99.90;;;;;;5144677;27;20811;-23
2021/07/09 08:35:23;;;;;;;1.80;1.70;;;16.00;99.90;;;;;;5144562;27;20616;-23
2021/07/09 08:37:54;;;;;;;2.20;1.73;;;16.00;99.90;;;;;;5144593;27;20436;-25
2021/07/09 08:40:25;;;;;;;1.80;1.70;;;15.90;99.90;;;;;;5144000;27;20546;-23
2021/07/09 08:42:56;;;;;;;2.10;1.60;;;15.90;99.90;;;;;;5144496;27;20551;-22
2021/07/09 08:45:29;;;;;;;1.77;1.67;;;15.80;99.90;;;;;;5143643;28;20461;-25
2021/07/09 08:48:04;;;;;;;1.47;1.37;;;15.90;99.90;;;;;;5143931;27;20440;-25
2021/07/09 08:50:35;;;;;;;1.60;1.50;;;15.80;99.90;;;;;;5143956;28;20483;-23
2021/07/09 08:53:06;;;;;;;1.77;1.67;;;15.80;99.90;;;;;;5144419;28;20479;-24
2021/07/09 08:55:37;;;;;;;1.80;1.67;;;15.80;99.90;;;;;;5143365;27;20838;-24
2021/07/09 08:58:08;;;;;;;2.23;1.67;;;15.70;99.90;;;;;;5123517;28;20491;-23
2021/07/09 09:00:47;;;;;;;1.90;1.30;;;15.70;99.90;;;;;;5123317;28;21048;-26
2021/07/09 09:03:22;;;;;;;1.60;1.50;;;15.70;99.90;;;;;;5123440;28;20442;-25
2021/07/09 09:05:59;;;;;;;1.87;1.67;;;15.60;99.90;;;;;;5123141;28;20456;-24
2021/07/09 09:08:32;;;;;;;1.97;1.87;;;15.60;99.90;;;;;;5123126;28;20441;-24
2021/07/09 09:11:04;;;;;;;1.70;1.57;;;15.60;99.90;;;;;;5122659;28;20594;-22
2021/07/09 09:13:36;;;;;;;1.50;1.40;;;15.60;99.90;;;;;;5126001;28;20570;-22
2021/07/09 09:16:12;;;;;;;1.50;1.40;;;15.60;99.90;;;;;;5126989;28;20472;-26
2021/07/09 09:18:49;;;;;;;2.00;1.67;;;15.50;99.90;;;;;;5126901;28;20425;-25
2021/07/09 09:21:23;;;;;;;1.97;1.77;;;15.50;99.90;;;;;;5126622;28;20509;-25
2021/07/09 09:23:55;;;;;;;2.00;1.70;;;15.40;99.90;;;;;;5127000;28;20453;-25
2021/07/09 09:26:50;;;;;;;1.73;1.63;;;15.40;99.90;;;;;;5125727;28;20551;-27
2021/07/09 09:29:45;;;;;;;2.07;1.87;;;15.30;99.90;;;;;;5126793;28;20490;-29
2021/07/09 09:32:16;;;;;;;1.90;1.80;;;15.30;99.90;;;;;;5126755;28;20503;-21
2021/07/09 09:34:49;;;;;;;2.10;2.00;;;15.30;99.90;;;;;;5126789;28;20492;-23
2021/07/09 09:37:23;;;;;;;1.83;1.73;;;15.40;99.90;;;;;;5126193;28;20446;-23
2021/07/09 09:39:54;;;;;;;2.13;1.90;;;15.40;99.90;;;;;;5126798;28;20484;-23
2021/07/09 09:42:28;;;;;;;2.53;2.00;;;15.20;99.90;;;;;;5126151;28;20501;-24
2021/07/09 09:45:03;;;;;;;2.00;1.60;;;15.30;99.90;;;;;;5140796;27;20472;-24
2021/07/09 09:47:37;;;;;;;2.00;1.80;;;15.30;99.90;;;;;;5146699;27;20451;-22
2021/07/09 09:50:15;;;;;;;2.50;2.30;;;15.30;99.90;;;;;;5147029;27;20868;-23
2021/07/09 09:52:50;;;;;;;2.80;1.77;;;15.30;99.90;;;;;;5146791;27;20449;-22
2021/07/09 09:55:24;;;;;;;1.70;1.60;;;15.30;99.90;;;;;;5146634;27;20445;-23
2021/07/09 09:58:15;;;;;;;2.20;1.93;;;15.30;99.90;;;;;;5147129;27;20899;-23
2021/07/09 10:00:47;;;;;;;2.20;1.80;;;15.20;99.90;;;;;;5146645;27;20455;-21
2021/07/09 10:03:22;;;;;;;2.00;1.87;;;15.10;99.90;;;;;;5146859;27;20444;-21
2021/07/09 10:05:55;;;;;;;2.60;2.07;;;15.10;99.90;;;;;;5146451;27;20781;-23
2021/07/09 10:08:26;;;;;;;3.13;2.50;;;15.10;99.90;;;;;;5147064;27;20451;-23
2021/07/09 10:10:59;;;;;;;2.87;2.57;;;15.00;99.90;;;;;;5145909;27;20516;-24
2021/07/09 10:13:31;;;;;;;2.23;2.07;;;15.10;99.90;;;;;;5146818;27;20451;-22
2021/07/09 10:16:04;;;;;;;2.33;2.20;;;15.00;99.90;;;;;;5146479;27;20455;-22
2021/07/09 10:18:36;;;;;;;3.00;2.80;;;15.00;99.90;;;;;;5133690;27;20470;-22
2021/07/09 10:21:11;;;;;;;2.40;2.20;;;15.00;99.90;;;;;;5125467;28;20445;-22
2021/07/09 10:23:42;;;;;;;2.43;2.23;;;15.00;99.90;;;;;;5125386;28;20446;-22
2021/07/09 10:26:13;;;;;;;2.30;2.10;;;14.90;99.90;;;;;;5124804;28;20498;-22
2021/07/09 10:29:06;;;;;;;3.70;2.70;;;15.00;99.90;;;;;;5125988;28;20441;-22
2021/07/09 10:31:37;;;;;;;2.00;1.90;;;14.90;99.90;;;;;;5125294;28;20505;-23
2021/07/09 10:34:38;;;;;;;2.50;2.30;;;14.90;99.90;;;;;;5125893;28;20442;-23
2021/07/09 10:37:20;;;;;;;2.57;2.37;;;14.80;99.90;;;;;;5133973;27;20433;-24
2021/07/09 10:39:52;;;;;;;2.80;2.27;;;14.80;99.90;;;;;;5146063;27;20498;-22
2021/07/09 10:42:29;;;;;;;2.50;2.30;;;14.80;99.90;;;;;;5135207;27;20465;-24
2021/07/09 10:45:10;;;;;;;2.50;2.30;;;14.70;99.90;;;;;;5132663;27;20483;-22
2021/07/09 10:47:43;;;;;;;2.30;2.10;;;14.70;99.90;;;;;;5145665;27;20472;-25
2021/07/09 10:50:15;;;;;;;2.73;2.53;;;14.80;99.90;;;;;;5124840;28;20473;-22
2021/07/09 10:52:54;;;;;;;2.63;2.27;;;14.70;99.90;;;;;;5125115;28;20430;-23
2021/07/09 10:55:53;;;;;;;2.30;2.10;;;14.70;99.90;;;;;;5125248;28;20449;-22
2021/07/09 10:58:44;;;;;;;2.53;2.33;;;14.70;99.90;;;;;;5124715;28;20460;-24
2021/07/09 11:01:31;;;;;;;2.50;2.20;;;14.70;99.90;;;;;;5135821;27;20437;-22
2021/07/09 11:04:14;;;;;;;2.80;2.57;;;14.60;99.90;;;;;;5145275;27;20459;-24
2021/07/09 11:06:50;;;;;;;2.53;2.33;;;14.60;99.90;;;;;;5145253;27;20483;-23
2021/07/09 11:09:39;;;;;;;2.70;2.50;;;14.60;99.90;;;;;;5145203;27;20721;-23
2021/07/09 11:12:29;;;;;;;2.53;2.33;;;14.50;99.90;;;;;;5145168;27;20498;-23
2021/07/09 11:15:18;;;;;;;3.07;2.87;;;14.50;99.90;;;;;;5145462;27;20854;-23
2021/07/09 11:17:54;;;;;;;3.20;2.63;;;14.50;99.90;;;;;;5144891;27;20499;-23
2021/07/09 11:20:34;;;;;;;3.10;2.83;;;14.50;99.90;;;;;;5145390;27;20470;-23
2021/07/09 11:23:09;;;;;;;3.00;2.50;;;14.40;99.90;;;;;;5144809;27;20791;-23
2021/07/09 11:25:47;;;;;;;3.27;2.50;;;14.30;99.90;;;;;;5145603;27;20531;-24
2021/07/09 11:28:30;;;;;;;3.17;2.87;;;14.30;99.90;;;;;;5143897;27;20440;-23
2021/07/09 11:31:05;;;;;;;3.10;2.80;;;14.30;99.90;;;;;;5144643;27;20579;-26
2021/07/09 11:33:36;;;;;;;3.73;3.43;;;14.20;99.90;;;;;;5144526;27;20437;-23
2021/07/09 11:36:28;;;;;;;3.40;3.10;;;14.20;99.90;;;;;;5144875;27;20441;-23
2021/07/09 11:39:11;;;;;;;3.10;2.90;;;14.20;99.90;;;;;;5139560;27;20445;-23
2021/07/09 11:41:58;;;;;;;3.60;3.30;;;14.20;99.90;;;;;;5145079;27;20513;-23
2021/07/09 11:44:49;;;;;;;3.47;3.13;;;14.20;99.90;;;;;;5143441;27;20964;-24
2021/07/09 11:47:21;;;;;;;3.10;2.90;;;14.20;99.90;;;;;;5144012;27;20451;-26
2021/07/09 11:49:54;;;;;;;3.40;2.80;;;14.10;99.90;;;;;;5144737;27;20421;-24
2021/07/09 11:52:27;;;;;;;3.40;3.20;;;14.10;99.90;;;;;;5144043;27;20538;-24
2021/07/09 11:55:05;;;;;;;3.10;2.90;;;14.10;99.90;;;;;;5144374;27;20501;-25
2021/07/09 11:57:40;;;;;;;4.60;3.00;;;14.00;99.90;;;;;;5143265;27;20445;-22
2021/07/09 12:00:14;;;;;;;3.27;3.00;;;13.90;99.90;;;;;;5144411;27;20452;-23
2021/07/09 12:02:48;;;;;;;3.10;2.90;;;13.90;99.90;;;;;;5144164;27;20464;-25
2021/07/09 12:05:20;;;;;;;3.40;3.20;;;13.90;99.90;;;;;;5144566;27;20524;-22
2021/07/09 12:07:53;;;;;;;3.20;2.90;;;13.90;99.90;;;;;;5143914;27;21216;-22
2021/07/09 12:10:27;;;;;;;3.40;3.07;;;13.90;99.90;;;;;;5144576;27;20441;-24
2021/07/09 12:13:04;;;;;;;3.23;2.97;;;13.90;99.90;;;;;;5143210;27;20487;-22
2021/07/09 12:15:39;;;;;;;3.40;3.10;;;13.90;99.90;;;;;;5144275;27;20452;-22
2021/07/09 12:18:11;;;;;;;4.33;2.93;;;13.90;99.90;;;;;;5143606;27;20437;-26
2021/07/09 12:20:43;;;;;;;4.10;3.70;;;13.90;99.90;;;;;;5140128;27;20430;-23
2021/07/09 12:23:16;;;;;;;3.03;2.83;;;13.90;99.90;;;;;;5123253;28;20492;-24
2021/07/09 12:25:53;;;;;;;4.23;3.83;;;13.80;99.90;;;;;;5123820;28;20442;-22
2021/07/09 12:28:28;;;;;;;3.67;3.37;;;13.90;99.90;;;;;;5122574;28;20449;-23
2021/07/09 12:31:00;;;;;;;3.70;3.40;;;13.90;99.90;;;;;;5123188;28;20467;-23
2021/07/09 12:33:36;;;;;;;3.93;3.53;;;13.80;99.90;;;;;;5143590;27;20509;-22
2021/07/09 12:36:08;;;;;;;4.40;3.40;;;13.80;99.90;;;;;;5143942;28;20439;-22
2021/07/09 12:38:41;;;;;;;3.70;3.40;;;13.80;99.90;;;;;;5144143;27;20452;-23
2021/07/09 12:41:14;;;;;;;3.87;3.57;;;13.70;99.90;;;;;;5143940;27;20449;-22
2021/07/09 12:43:51;;;;;;;3.83;3.53;;;13.70;99.90;;;;;;5142957;27;20441;-22
2021/07/09 12:46:24;;;;;;;3.60;3.30;;;13.70;99.90;;;;;;5144039;28;20487;-26
2021/07/09 12:48:58;;;;;;;4.13;3.33;;;13.70;99.90;;;;;;5146656;27;20962;-24
2021/07/09 12:51:33;;;;;;;4.00;3.70;;;13.70;99.90;;;;;;5148145;27;20506;-23
2021/07/09 12:54:05;;;;;;;3.63;3.33;;;13.80;99.90;;;;;;5148157;27;20432;-26
2021/07/09 12:56:38;;;;;;;3.70;3.40;;;13.70;99.90;;;;;;5148036;27;20464;-23
2021/07/09 12:59:12;;;;;;;3.73;3.43;;;13.70;99.90;;;;;;5146916;27;20456;-23
2021/07/09 13:01:44;;;;;;;3.63;3.33;;;13.80;99.90;;;;;;5147819;27;20842;-23
2021/07/09 13:04:20;;;;;;;3.30;3.00;;;13.90;99.90;;;;;;5147610;27;20441;-22
2021/07/09 13:06:52;;;;;;;3.77;3.43;;;14.00;99.90;;;;;;5147412;27;20448;-23
2021/07/09 13:09:23;;;;;;;3.93;3.63;;;14.00;99.90;;;;;;5147407;27;20444;-23
2021/07/09 13:11:54;;;;;;;3.80;3.37;;;14.20;99.90;;;;;;5127063;28;20481;-22
2021/07/09 13:14:29;;;;;;;3.27;2.87;;;14.20;99.90;;;;;;5142336;27;20440;-23
2021/07/09 13:17:01;;;;;;;4.37;3.27;;;14.30;99.90;;;;;;5147331;27;20440;-23
2021/07/09 13:19:34;;;;;;;3.60;3.30;;;14.50;99.90;;;;;;5147136;27;20437;-24
2021/07/09 13:22:08;;;;;;;3.87;3.57;;;14.60;99.90;;;;;;5147594;27;20477;-22